Weather reports worldwide

Advertisment
Mannheim City Airport, Germany (10730): temperature & dewpoint: 08.12.2018 01:00:00 - 14.12.2018 01:00:00 (CET)Mannheim City Airport, Germany (10730): wind speed: 08.12.2018 01:00:00 - 14.12.2018 01:00:00 (CET)Mannheim City Airport, Germany (10730): wind direction: 08.12.2018 01:00:00 - 14.12.2018 01:00:00 (CET)Mannheim City Airport, Germany (10730): visibility: 08.12.2018 01:00:00 - 14.12.2018 01:00:00 (CET)
Date & Time tt [°C] td [°C] ff [km/h] ff [kn] dd vv [km]
14.12.2018 01:00:00 - - - - - -
14.12.2018 00:00:00 - - - - - -
13.12.2018 23:00:00 - - - - - -
13.12.2018 22:00:00 - - - - - -
13.12.2018 21:00:00 2,0 -5,0 18 10 E 10
13.12.2018 20:00:00 2,0 -5,0 9 5 ENE 10
13.12.2018 19:00:00 2,0 -5,0 11 6 NNE 10
13.12.2018 18:00:00 2,0 -5,0 15 8 NNE 10
13.12.2018 17:00:00 2,0 -5,0 15 8 NE 10
13.12.2018 16:00:00 2,0 -4,0 13 7 NNE 10
13.12.2018 15:00:00 2,0 -4,0 13 7 NNE 10
13.12.2018 14:00:00 3,0 -4,0 15 8 NE 10
13.12.2018 13:00:00 3,0 -4,0 13 7 NE 10
13.12.2018 12:00:00 3,0 -3,0 16 9 ENE 10
13.12.2018 11:00:00 2,0 -4,0 21 11 E 10
13.12.2018 10:00:00 1,0 -4,0 15 8 ENE 10
13.12.2018 09:00:00 0,0 -4,0 11 6 NNW 10
13.12.2018 08:00:00 0,0 -4,0 9 5 NNW 10
13.12.2018 07:00:00 0,0 -3,0 4 2 - 10
13.12.2018 06:00:00 0,0 -3,0 8 4 NE 10
13.12.2018 05:00:00 - - - - - -
13.12.2018 04:00:00 - - - - - -
13.12.2018 03:00:00 - - - - - -
13.12.2018 02:00:00 - - - - - -
13.12.2018 01:00:00 - - - - - -
13.12.2018 00:00:00 - - - - - -
12.12.2018 23:00:00 - - - - - -
12.12.2018 22:00:00 - - - - - -
12.12.2018 21:00:00 3,0 0,0 9 5 N 10
12.12.2018 20:00:00 3,0 0,0 9 5 NNE 10
12.12.2018 19:00:00 4,0 1,0 11 6 NNE 10
12.12.2018 18:00:00 4,0 0,0 8 4 NNE 10
12.12.2018 17:00:00 4,0 0,0 5 3 NW 10
12.12.2018 16:00:00 5,0 0,0 11 6 NNE 10
12.12.2018 15:00:00 5,0 1,0 9 5 N 10
12.12.2018 14:00:00 5,0 1,0 9 5 N 10
12.12.2018 13:00:00 4,0 1,0 11 6 NNW 10
12.12.2018 12:00:00 4,0 2,0 8 4 N 10
12.12.2018 11:00:00 4,0 2,0 5 3 - 10
12.12.2018 10:00:00 2,0 1,0 0 0 N 4,5
12.12.2018 09:00:00 1,0 0,0 2 1 - 5
12.12.2018 08:00:00 2,0 1,0 2 1 - 7
12.12.2018 07:00:00 2,0 1,0 4 2 - 7
12.12.2018 06:00:00 2,0 1,0 5 3 - 7
12.12.2018 05:00:00 - - - - - -
12.12.2018 04:00:00 - - - - - -
12.12.2018 03:00:00 - - - - - -
12.12.2018 02:00:00 - - - - - -
12.12.2018 01:00:00 - - - - - -
12.12.2018 00:00:00 - - - - - -
11.12.2018 23:00:00 - - - - - -
11.12.2018 22:00:00 - - - - - -
11.12.2018 21:00:00 3,0 2,0 2 1 - 10
11.12.2018 20:00:00 4,0 2,0 5 3 - 10
11.12.2018 19:00:00 4,0 2,0 8 4 SW 10
11.12.2018 18:00:00 3,0 2,0 5 3 S 10
11.12.2018 17:00:00 5,0 1,0 13 7 NW 10
11.12.2018 16:00:00 6,0 0,0 9 5 WNW 10
11.12.2018 15:00:00 6,0 0,0 13 7 NW 10
11.12.2018 14:00:00 6,0 1,0 18 10 NW 10
11.12.2018 13:00:00 6,0 1,0 13 7 W 10
11.12.2018 12:00:00 5,0 1,0 9 5 SW 10
11.12.2018 11:00:00 4,0 1,0 9 5 SW 10
11.12.2018 10:00:00 3,0 1,0 9 5 S 10
11.12.2018 09:00:00 3,0 1,0 9 5 W 10
11.12.2018 08:00:00 3,0 0,0 9 5 WSW 10
11.12.2018 07:00:00 3,0 0,0 8 4 WSW 10
11.12.2018 06:00:00 3,0 0,0 8 4 W 10
11.12.2018 05:00:00 - - - - - -
11.12.2018 04:00:00 - - - - - -
11.12.2018 03:00:00 - - - - - -
11.12.2018 02:00:00 - - - - - -
11.12.2018 01:00:00 - - - - - -
11.12.2018 00:00:00 - - - - - -
10.12.2018 23:00:00 - - - - - -
10.12.2018 22:00:00 - - - - - -
10.12.2018 21:00:00 - - - - - -
10.12.2018 20:00:00 5,0 2,0 9 5 WNW 10
10.12.2018 19:00:00 5,0 2,0 22 12 WNW 10
10.12.2018 18:00:00 7,0 0,0 9 5 WSW 10
10.12.2018 17:00:00 7,0 0,0 11 6 WSW 10
10.12.2018 16:00:00 8,0 0,0 24 13 W 10
10.12.2018 15:00:00 8,0 0,0 15 8 W 10
10.12.2018 14:00:00 8,0 0,0 21 11 W 10
10.12.2018 13:00:00 7,0 2,0 8 4 W 10
10.12.2018 12:00:00 7,0 2,0 16 9 W 10
10.12.2018 11:00:00 7,0 2,0 15 8 W 10
10.12.2018 10:00:00 6,0 2,0 15 8 WSW 10
10.12.2018 09:00:00 6,0 2,0 16 9 W 10
10.12.2018 08:00:00 6,0 2,0 15 8 WSW 10
10.12.2018 07:00:00 - - - - - -
10.12.2018 06:00:00 6,0 2,0 11 6 W 10
10.12.2018 05:00:00 - - - - - -
10.12.2018 04:00:00 - - - - - -
10.12.2018 03:00:00 - - - - - -
10.12.2018 02:00:00 - - - - - -
10.12.2018 01:00:00 - - - - - -
10.12.2018 00:00:00 - - - - - -
09.12.2018 23:00:00 - - - - - -
09.12.2018 22:00:00 - - - - - -
09.12.2018 21:00:00 - - - - - -
09.12.2018 20:00:00 8,0 5,0 11 6 W 10
09.12.2018 19:00:00 - - - - - -
09.12.2018 18:00:00 - - - - - -
09.12.2018 17:00:00 9,0 5,0 18 10 W 10
09.12.2018 16:00:00 9,0 6,0 15 8 SW 10
09.12.2018 15:00:00 10,0 5,0 21 11 SW 10
09.12.2018 14:00:00 10,0 5,0 18 10 WSW 10
09.12.2018 13:00:00 10,0 5,0 16 9 SW 10
09.12.2018 12:00:00 9,0 5,0 21 11 WSW 10
09.12.2018 11:00:00 9,0 5,0 22 12 WSW 10
09.12.2018 10:00:00 9,0 5,0 18 10 WSW 10
09.12.2018 09:00:00 9,0 4,0 22 12 WSW 10
09.12.2018 08:00:00 9,0 4,0 24 13 WSW 10
09.12.2018 07:00:00 - - - - - -
09.12.2018 06:00:00 - - - - - -
09.12.2018 05:00:00 - - - - - -
09.12.2018 04:00:00 - - - - - -
09.12.2018 03:00:00 - - - - - -
09.12.2018 02:00:00 - - - - - -
09.12.2018 01:00:00 - - - - - -
09.12.2018 00:00:00 - - - - - -
08.12.2018 23:00:00 - - - - - -
08.12.2018 22:00:00 8,0 7,0 28 15 SSW 10
08.12.2018 21:00:00 8,0 7,0 26 14 SSW 10
08.12.2018 20:00:00 8,0 6,0 24 13 S 10
08.12.2018 19:00:00 9,0 6,0 21 11 SSW 10
08.12.2018 18:00:00 9,0 6,0 22 12 SSW 10
08.12.2018 17:00:00 9,0 6,0 22 12 SSW 10
08.12.2018 16:00:00 9,0 6,0 16 9 SSW 10
08.12.2018 15:00:00 8,0 6,0 18 10 SSW 10
08.12.2018 14:00:00 8,0 6,0 18 10 SSW 10
08.12.2018 13:00:00 8,0 5,0 21 11 SSW 10
08.12.2018 12:00:00 8,0 5,0 24 13 SSW 10
08.12.2018 11:00:00 7,0 5,0 22 12 SSW 10
08.12.2018 10:00:00 7,0 4,0 21 11 SSW 10
08.12.2018 09:00:00 8,0 3,0 22 12 SSW 10
08.12.2018 08:00:00 8,0 3,0 21 11 SSW 10
08.12.2018 07:00:00 - - - - - -
08.12.2018 06:00:00 - - - - - -
08.12.2018 05:00:00 - - - - - -
08.12.2018 04:00:00 - - - - - -
08.12.2018 03:00:00 - - - - - -
08.12.2018 02:00:00 - - - - - -
08.12.2018 01:00:00 - - - - - -

tt = temperature
td = dewpoint
ff = wind speed
dd = wind direction
vv = visibility

Next stations